Time,TemperatureF,DewpointF,PressureIn,WindDirection,WindDirectionDegrees,WindSpeedMPH,WindSpeedGustMPH,Humidity,HourlyPrecipIn,Conditions,Clouds,dailyrainin,SoftwareType,DateUTC
2013-07-06 00:01:00,58.0,38.0,29.98,North,-999,-999.0,-999.0,48,-99.99,,,-99.99,,2013-07-06 06:01:00,
2013-07-06 00:12:00,58.0,38.0,29.98,North,-999,-999.0,-999.0,48,-99.99,,,-99.99,,2013-07-06 06:12:00,
2013-07-06 00:22:00,58.0,38.0,29.98,North,-999,-999.0,-999.0,48,-99.99,,,-99.99,,2013-07-06 06:22:00,
2013-07-06 00:33:00,57.0,39.0,29.98,North,-999,-999.0,-999.0,51,-99.99,,,-99.99,,2013-07-06 06:33:00,
2013-07-06 00:43:00,56.0,39.0,29.98,North,-999,-999.0,-999.0,53,-99.99,,,-99.99,,2013-07-06 06:43:00,
2013-07-06 00:53:00,56.0,39.0,29.98,North,-999,-999.0,-999.0,53,-99.99,,,-99.99,,2013-07-06 06:53:00,
2013-07-06 01:01:00,56.0,38.0,29.98,North,-999,-999.0,-999.0,51,-99.99,,,-99.99,,2013-07-06 07:01:00,
2013-07-06 01:12:00,56.0,39.0,29.98,North,-999,-999.0,-999.0,52,-99.99,,,-99.99,,2013-07-06 07:12:00,
2013-07-06 01:22:00,56.0,39.0,29.98,North,-999,-999.0,-999.0,52,-99.99,,,-99.99,,2013-07-06 07:22:00,
2013-07-06 01:33:00,56.0,39.0,29.98,North,-999,-999.0,-999.0,53,-99.99,,,-99.99,,2013-07-06 07:33:00,
2013-07-06 01:52:00,55.0,39.0,29.98,North,-999,-999.0,-999.0,54,-99.99,,,-99.99,,2013-07-06 07:52:00,
2013-07-06 02:02:00,55.0,39.0,29.98,North,-999,-999.0,-999.0,55,-99.99,,,-99.99,,2013-07-06 08:02:00,
2013-07-06 02:21:00,55.0,39.0,29.98,North,-999,-999.0,-999.0,54,-99.99,,,-99.99,,2013-07-06 08:21:00,
2013-07-06 02:33:00,55.0,39.0,29.97,North,-999,-999.0,-999.0,55,-99.99,,,-99.99,,2013-07-06 08:33:00,
2013-07-06 02:43:00,54.0,39.0,29.97,North,-999,-999.0,-999.0,56,-99.99,,,-99.99,,2013-07-06 08:43:00,
2013-07-06 02:54:00,54.0,39.0,29.97,North,-999,-999.0,-999.0,56,-99.99,,,-99.99,,2013-07-06 08:54:00,
2013-07-06 03:02:00,54.0,39.0,29.98,North,-999,-999.0,-999.0,57,-99.99,,,-99.99,,2013-07-06 09:02:00,
2013-07-06 03:22:00,54.0,39.0,29.98,North,-999,-999.0,-999.0,57,-99.99,,,-99.99,,2013-07-06 09:22:00,
2013-07-06 03:33:00,54.0,39.0,29.98,North,-999,-999.0,-999.0,56,-99.99,,,-99.99,,2013-07-06 09:33:00,
2013-07-06 03:52:00,54.0,39.0,29.98,North,-999,-999.0,-999.0,56,-99.99,,,-99.99,,2013-07-06 09:52:00,
2013-07-06 04:02:00,53.0,39.0,29.98,North,-999,-999.0,-999.0,59,-99.99,,,-99.99,,2013-07-06 10:02:00,
2013-07-06 04:11:00,52.0,39.0,29.98,North,-999,-999.0,-999.0,62,-99.99,,,-99.99,,2013-07-06 10:11:00,
2013-07-06 04:22:00,52.0,39.0,29.98,North,-999,-999.0,-999.0,62,-99.99,,,-99.99,,2013-07-06 10:22:00,
2013-07-06 04:33:00,51.0,39.0,29.98,North,-999,-999.0,-999.0,63,-99.99,,,-99.99,,2013-07-06 10:33:00,
2013-07-06 04:42:00,51.0,40.0,29.98,North,-999,-999.0,-999.0,66,-99.99,,,-99.99,,2013-07-06 10:42:00,
2013-07-06 04:53:00,51.0,40.0,29.98,North,-999,-999.0,-999.0,66,-99.99,,,-99.99,,2013-07-06 10:53:00,
2013-07-06 05:01:00,50.0,40.0,29.99,North,-999,-999.0,-999.0,69,-99.99,,,-99.99,,2013-07-06 11:01:00,
2013-07-06 05:11:00,50.0,41.0,29.99,North,-999,-999.0,-999.0,70,-99.99,,,-99.99,,2013-07-06 11:11:00,
2013-07-06 05:22:00,50.0,41.0,29.99,North,-999,-999.0,-999.0,70,-99.99,,,-99.99,,2013-07-06 11:22:00,
2013-07-06 05:33:00,50.0,41.0,29.99,North,-999,-999.0,-999.0,70,-99.99,,,-99.99,,2013-07-06 11:33:00,
2013-07-06 05:42:00,49.0,40.0,29.99,North,-999,-999.0,-999.0,70,-99.99,,,-99.99,,2013-07-06 11:42:00,
2013-07-06 05:53:00,49.0,40.0,29.99,North,-999,-999.0,-999.0,70,-99.99,,,-99.99,,2013-07-06 11:53:00,
2013-07-06 06:01:00,49.0,40.0,30.00,North,-999,-999.0,-999.0,71,-99.99,,,-99.99,,2013-07-06 12:01:00,
2013-07-06 06:22:00,48.0,39.0,30.00,North,-999,-999.0,-999.0,72,-99.99,,,-99.99,,2013-07-06 12:22:00,
2013-07-06 06:33:00,48.0,40.0,30.00,North,-999,-999.0,-999.0,73,-99.99,,,-99.99,,2013-07-06 12:33:00,
2013-07-06 06:52:00,48.0,40.0,30.01,North,-999,-999.0,-999.0,74,-99.99,,,-99.99,,2013-07-06 12:52:00,
2013-07-06 07:11:00,49.0,41.0,30.01,North,-999,-999.0,-999.0,73,-99.99,,,-99.99,,2013-07-06 13:11:00,
2013-07-06 07:22:00,49.0,41.0,30.01,North,-999,-999.0,-999.0,73,-99.99,,,-99.99,,2013-07-06 13:22:00,
2013-07-06 07:43:00,49.0,42.0,30.02,North,-999,-999.0,-999.0,76,-99.99,,,-99.99,,2013-07-06 13:43:00,
2013-07-06 07:52:00,51.0,42.0,30.02,North,-999,-999.0,-999.0,72,-99.99,,,-99.99,,2013-07-06 13:52:00,
2013-07-06 08:02:00,51.0,42.0,30.02,North,-999,-999.0,-999.0,71,-99.99,,,-99.99,,2013-07-06 14:02:00,
2013-07-06 08:11:00,51.0,42.0,30.02,North,-999,-999.0,-999.0,71,-99.99,,,-99.99,,2013-07-06 14:11:00,
2013-07-06 08:42:00,53.0,43.0,30.02,North,-999,-999.0,-999.0,68,-99.99,,,-99.99,,2013-07-06 14:42:00,
2013-07-06 08:53:00,53.0,43.0,30.02,North,-999,-999.0,-999.0,68,-99.99,,,-99.99,,2013-07-06 14:53:00,
2013-07-06 09:02:00,53.0,43.0,30.02,North,-999,-999.0,-999.0,68,-99.99,,,-99.99,,2013-07-06 15:02:00,
2013-07-06 09:22:00,53.0,43.0,30.02,North,-999,-999.0,-999.0,69,-99.99,,,-99.99,,2013-07-06 15:22:00,
2013-07-06 09:33:00,54.0,44.0,30.03,North,-999,-999.0,-999.0,68,-99.99,,,-99.99,,2013-07-06 15:33:00,
2013-07-06 09:53:00,55.0,44.0,30.03,North,-999,-999.0,-999.0,66,-99.99,,,-99.99,,2013-07-06 15:53:00,
2013-07-06 10:03:00,56.0,44.0,30.03,North,-999,-999.0,-999.0,64,-99.99,,,-99.99,,2013-07-06 16:03:00,
2013-07-06 10:13:00,58.0,45.0,30.03,North,-999,-999.0,-999.0,62,-99.99,,,-99.99,,2013-07-06 16:13:00,
2013-07-06 10:23:00,58.0,45.0,30.03,North,-999,-999.0,-999.0,62,-99.99,,,-99.99,,2013-07-06 16:23:00,
2013-07-06 10:36:00,60.0,46.0,30.03,North,-999,-999.0,-999.0,59,-99.99,,,-99.99,,2013-07-06 16:36:00,
2013-07-06 10:46:00,61.0,46.0,30.02,North,-999,-999.0,-999.0,57,-99.99,,,-99.99,,2013-07-06 16:46:00,
2013-07-06 11:05:00,61.0,46.0,30.02,North,-999,-999.0,-999.0,57,-99.99,,,-99.99,,2013-07-06 17:05:00,
2013-07-06 11:15:00,66.0,46.0,30.02,North,-999,-999.0,-999.0,48,-99.99,,,-99.99,,2013-07-06 17:15:00,
2013-07-06 11:26:00,66.0,46.0,30.02,North,-999,-999.0,-999.0,48,-99.99,,,-99.99,,2013-07-06 17:26:00,
2013-07-06 11:36:00,68.0,45.0,30.02,North,-999,-999.0,-999.0,44,-99.99,,,-99.99,,2013-07-06 17:36:00,
2013-07-06 12:05:00,70.0,46.0,30.02,North,-999,-999.0,-999.0,42,-99.99,,,-99.99,,2013-07-06 18:05:00,
2013-07-06 12:26:00,70.0,46.0,30.02,North,-999,-999.0,-999.0,42,-99.99,,,-99.99,,2013-07-06 18:26:00,
2013-07-06 13:00:00,73.0,46.0,29.99,North,-999,-999.0,-999.0,38,-99.99,,,-99.99,,2013-07-06 19:00:00,
2013-07-06 13:05:00,74.0,47.0,30.01,North,-999,-999.0,-999.0,38,-99.99,,,-99.99,,2013-07-06 19:05:00,
2013-07-06 13:15:00,73.0,46.0,30.00,North,-999,-999.0,-999.0,38,-99.99,,,-99.99,,2013-07-06 19:15:00,
2013-07-06 13:46:00,73.0,46.0,29.99,North,-999,-999.0,-999.0,38,-99.99,,,-99.99,,2013-07-06 19:46:00,
2013-07-06 14:04:00,62.0,51.0,30.02,North,-999,-999.0,-999.0,68,-99.99,,,-99.99,,2013-07-06 20:04:00,
2013-07-06 14:26:00,56.0,49.0,30.03,North,-999,-999.0,-999.0,77,-99.99,,,-99.99,,2013-07-06 20:26:00,
2013-07-06 14:37:00,57.0,50.0,30.02,North,-999,-999.0,-999.0,76,-99.99,,,-99.99,,2013-07-06 20:37:00,
2013-07-06 15:04:00,57.0,51.0,30.01,North,-999,-999.0,-999.0,79,-99.99,,,-99.99,,2013-07-06 21:04:00,
2013-07-06 15:14:00,58.0,54.0,30.01,North,-999,-999.0,-999.0,85,-99.99,,,-99.99,,2013-07-06 21:14:00,
2013-07-06 15:36:00,58.0,52.0,30.02,North,-999,-999.0,-999.0,81,-99.99,,,-99.99,,2013-07-06 21:36:00,
2013-07-06 16:05:00,55.0,48.0,30.01,North,-999,-999.0,-999.0,77,-99.99,,,-99.99,,2013-07-06 22:05:00,
2013-07-06 16:15:00,52.0,46.0,30.01,North,-999,-999.0,-999.0,79,-99.99,,,-99.99,,2013-07-06 22:15:00,
2013-07-06 16:25:00,52.0,46.0,30.01,North,-999,-999.0,-999.0,79,-99.99,,,-99.99,,2013-07-06 22:25:00,
2013-07-06 16:36:00,51.0,48.0,30.03,North,-999,-999.0,-999.0,89,-99.99,,,-99.99,,2013-07-06 22:36:00,
2013-07-06 16:47:00,52.0,48.0,30.02,North,-999,-999.0,-999.0,86,-99.99,,,-99.99,,2013-07-06 22:47:00,
2013-07-06 17:04:00,52.0,48.0,30.02,North,-999,-999.0,-999.0,86,-99.99,,,-99.99,,2013-07-06 23:04:00,
2013-07-06 17:15:00,52.0,48.0,30.02,North,-999,-999.0,-999.0,85,-99.99,,,-99.99,,2013-07-06 23:15:00,
2013-07-06 18:05:00,57.0,52.0,30.00,North,-999,-999.0,-999.0,82,-99.99,,,-99.99,,2013-07-07 00:05:00,
2013-07-06 18:15:00,58.0,52.0,29.99,North,-999,-999.0,-999.0,79,-99.99,,,-99.99,,2013-07-07 00:15:00,
2013-07-06 18:35:00,56.0,49.0,29.98,North,-999,-999.0,-999.0,77,-99.99,,,-99.99,,2013-07-07 00:35:00,
2013-07-06 18:47:00,56.0,50.0,29.99,North,-999,-999.0,-999.0,81,-99.99,,,-99.99,,2013-07-07 00:47:00,
2013-07-06 19:04:00,56.0,50.0,29.99,North,-999,-999.0,-999.0,81,-99.99,,,-99.99,,2013-07-07 01:04:00,
2013-07-06 19:13:00,56.0,53.0,29.98,North,-999,-999.0,-999.0,89,-99.99,,,-99.99,,2013-07-07 01:13:00,
2013-07-06 19:25:00,56.0,53.0,29.98,North,-999,-999.0,-999.0,89,-99.99,,,-99.99,,2013-07-07 01:25:00,
2013-07-06 19:46:00,54.0,52.0,29.99,North,-999,-999.0,-999.0,92,-99.99,,,-99.99,,2013-07-07 01:46:00,
2013-07-06 20:24:00,53.0,51.0,30.01,North,-999,-999.0,-999.0,93,-99.99,,,-99.99,,2013-07-07 02:24:00,
2013-07-06 20:33:00,53.0,50.0,30.00,North,-999,-999.0,-999.0,90,-99.99,,,-99.99,,2013-07-07 02:33:00,
2013-07-06 21:03:00,53.0,49.0,30.01,North,-999,-999.0,-999.0,87,-99.99,,,-99.99,,2013-07-07 03:03:00,
2013-07-06 21:13:00,52.0,49.0,30.04,North,-999,-999.0,-999.0,88,-99.99,,,-99.99,,2013-07-07 03:13:00,
2013-07-06 21:24:00,52.0,49.0,30.04,North,-999,-999.0,-999.0,88,-99.99,,,-99.99,,2013-07-07 03:24:00,
2013-07-06 21:32:00,52.0,49.0,30.07,North,-999,-999.0,-999.0,89,-99.99,,,-99.99,,2013-07-07 03:32:00,
2013-07-06 21:44:00,54.0,43.0,30.06,North,-999,-999.0,-999.0,67,-99.99,,,-99.99,,2013-07-07 03:44:00,
2013-07-06 22:01:00,57.0,43.0,30.05,North,-999,-999.0,-999.0,59,-99.99,,,-99.99,,2013-07-07 04:01:00,
2013-07-06 22:11:00,55.0,43.0,30.06,North,-999,-999.0,-999.0,64,-99.99,,,-99.99,,2013-07-07 04:11:00,
2013-07-06 22:21:00,55.0,43.0,30.06,North,-999,-999.0,-999.0,64,-99.99,,,-99.99,,2013-07-07 04:21:00,
2013-07-06 22:31:00,55.0,43.0,30.06,North,-999,-999.0,-999.0,63,-99.99,,,-99.99,,2013-07-07 04:31:00,
2013-07-06 22:41:00,55.0,42.0,30.07,North,-999,-999.0,-999.0,62,-99.99,,,-99.99,,2013-07-07 04:41:00,
2013-07-06 22:51:00,55.0,42.0,30.07,North,-999,-999.0,-999.0,62,-99.99,,,-99.99,,2013-07-07 04:51:00,
2013-07-06 23:01:00,55.0,43.0,30.06,North,-999,-999.0,-999.0,63,-99.99,,,-99.99,,2013-07-07 05:01:00,
2013-07-06 23:11:00,55.0,43.0,30.06,North,-999,-999.0,-999.0,63,-99.99,,,-99.99,,2013-07-07 05:11:00,
2013-07-06 23:21:00,55.0,43.0,30.06,North,-999,-999.0,-999.0,63,-99.99,,,-99.99,,2013-07-07 05:21:00,
2013-07-06 23:31:00,54.0,42.0,30.06,North,-999,-999.0,-999.0,64,-99.99,,,-99.99,,2013-07-07 05:31:00,
2013-07-06 23:41:00,54.0,41.0,30.06,North,-999,-999.0,-999.0,61,-99.99,,,-99.99,,2013-07-07 05:41:00,
2013-07-06 23:51:00,54.0,41.0,30.06,North,-999,-999.0,-999.0,61,-99.99,,,-99.99,,2013-07-07 05:51:00,